CTV390 WALL-WARR
Flight info
| Callsign | CTV390 |
|---|---|
| Flight time | 1h 19m |
| Altitude | 38000 |
| Route | WALL/25 N0453F380 JIDA2B JIDAR T28 KOLTA KOLT1E WARR/10 |
| Aircraft | A20N/M-SDE2E3FGHIJ1RWXY/LB1 |
Departure
| Time | 2026-04-24 11:55 |
|---|---|
| Airport | Sultan Aji Muhammad Sulaiman Sepinggan International Airport (WALL) |
Arrival
| Time | 2026-04-24 13:14 |
|---|---|
| Airport | Juanda International Airport (WARR) |
| Time | Latitude | Longitude | Altitude | Speed | Heading |
|---|---|---|---|---|---|
| 2026-04-24 11:38 | -1.26215 | 116.90085 | 21 ft | 0 kts | 337° |
| 2026-04-24 11:48 | -1.26217 | 116.90085 | 22 ft | 3 kts | 337° |
| 2026-04-24 11:48 | -1.26242 | 116.90095 | 21 ft | 4 kts | 341° |
| 2026-04-24 11:48 | -1.26268 | 116.90102 | 21 ft | 4 kts | 359° |
| 2026-04-24 11:48 | -1.26288 | 116.90096 | 21 ft | 2 kts | 64° |
| 2026-04-24 11:49 | -1.26289 | 116.90095 | 21 ft | 1 kts | 65° |
| 2026-04-24 11:51 | -1.26288 | 116.90098 | 21 ft | 2 kts | 65° |
| 2026-04-24 11:51 | -1.26278 | 116.90122 | 22 ft | 6 kts | 69° |
| 2026-04-24 11:52 | -1.26253 | 116.90185 | 21 ft | 13 kts | 68° |
| 2026-04-24 11:52 | -1.26209 | 116.90292 | 22 ft | 16 kts | 67° |
| 2026-04-24 11:52 | -1.26243 | 116.90386 | 21 ft | 17 kts | 121° |
| 2026-04-24 11:52 | -1.26295 | 116.90455 | 21 ft | 0 kts | 139° |
| 2026-04-24 11:53 | -1.26297 | 116.90457 | 21 ft | 2 kts | 141° |
| 2026-04-24 11:54 | -1.26317 | 116.90467 | 21 ft | 5 kts | 159° |
| 2026-04-24 11:54 | -1.26367 | 116.90467 | 24 ft | 11 kts | 194° |
| 2026-04-24 11:54 | -1.26435 | 116.90399 | 24 ft | 18 kts | 248° |
| 2026-04-24 11:54 | -1.26585 | 116.90044 | 20 ft | 99 kts | 247° |
| 2026-04-24 11:55 | -1.26954 | 116.89173 | 28 ft | 169 kts | 247° |
| 2026-04-24 11:55 | -1.27398 | 116.88053 | 736 ft | 174 kts | 250° |
| 2026-04-24 11:55 | -1.27876 | 116.86873 | 1245 ft | 194 kts | 247° |
| 2026-04-24 11:55 | -1.28440 | 116.85578 | 1738 ft | 214 kts | 246° |
| 2026-04-24 11:56 | -1.29057 | 116.84171 | 2198 ft | 232 kts | 247° |
| 2026-04-24 11:56 | -1.29738 | 116.82597 | 2637 ft | 256 kts | 248° |
| 2026-04-24 11:56 | -1.30465 | 116.80894 | 3190 ft | 275 kts | 248° |
| 2026-04-24 11:56 | -1.31221 | 116.79121 | 4096 ft | 278 kts | 248° |
| 2026-04-24 11:57 | -1.31979 | 116.77327 | 5015 ft | 284 kts | 249° |
| 2026-04-24 11:57 | -1.32782 | 116.75503 | 5145 ft | 287 kts | 241° |
| 2026-04-24 11:57 | -1.34114 | 116.74040 | 5258 ft | 288 kts | 214° |
| 2026-04-24 11:57 | -1.35971 | 116.73302 | 5369 ft | 290 kts | 187° |
| 2026-04-24 11:58 | -1.37962 | 116.73444 | 5487 ft | 289 kts | 161° |
| 2026-04-24 11:58 | -1.39820 | 116.74202 | 5599 ft | 288 kts | 152° |
| 2026-04-24 11:58 | -1.41588 | 116.75085 | 5704 ft | 288 kts | 151° |
| 2026-04-24 11:58 | -1.43392 | 116.75977 | 5816 ft | 289 kts | 152° |
| 2026-04-24 11:59 | -1.45219 | 116.76825 | 5923 ft | 290 kts | 154° |
| 2026-04-24 11:59 | -1.47067 | 116.77638 | 5999 ft | 291 kts | 155° |
| 2026-04-24 11:59 | -1.48926 | 116.78433 | 6005 ft | 290 kts | 155° |
| 2026-04-24 11:59 | -1.50788 | 116.79221 | 6003 ft | 290 kts | 155° |
| 2026-04-24 12:00 | -1.52644 | 116.80007 | 6005 ft | 290 kts | 155° |
| 2026-04-24 12:00 | -1.54519 | 116.80767 | 6001 ft | 292 kts | 161° |
| 2026-04-24 12:00 | -1.56534 | 116.81092 | 6186 ft | 296 kts | 179° |
| 2026-04-24 12:00 | -1.58592 | 116.80893 | 6899 ft | 298 kts | 187° |
| 2026-04-24 12:01 | -1.60651 | 116.80641 | 7849 ft | 298 kts | 186° |
| 2026-04-24 12:01 | -1.62727 | 116.80401 | 8673 ft | 302 kts | 186° |
| 2026-04-24 12:01 | -1.64117 | 116.80241 | 9194 ft | 305 kts | 186° |
| 2026-04-24 12:01 | -1.66235 | 116.79993 | 10019 ft | 308 kts | 186° |
| 2026-04-24 12:02 | -1.68394 | 116.79740 | 10567 ft | 322 kts | 185° |
| 2026-04-24 12:02 | -1.70696 | 116.79471 | 10806 ft | 344 kts | 185° |
| 2026-04-24 12:02 | -1.73127 | 116.79185 | 11183 ft | 358 kts | 186° |
| 2026-04-24 12:02 | -1.75612 | 116.78891 | 11938 ft | 360 kts | 185° |
| 2026-04-24 12:03 | -1.78791 | 116.77957 | 12939 ft | 365 kts | 208° |
| 2026-04-24 12:03 | -1.80191 | 116.76952 | 13380 ft | 370 kts | 222° |
| 2026-04-24 12:03 | -1.81780 | 116.74911 | 14025 ft | 376 kts | 242° |
| 2026-04-24 12:03 | -1.82744 | 116.72478 | 14688 ft | 379 kts | 252° |
| 2026-04-24 12:04 | -1.83504 | 116.69973 | 15289 ft | 384 kts | 253° |
| 2026-04-24 12:04 | -1.84261 | 116.67390 | 15489 ft | 386 kts | 253° |
| 2026-04-24 12:04 | -1.85042 | 116.64822 | 15594 ft | 386 kts | 252° |
| 2026-04-24 12:04 | -1.85854 | 116.62258 | 15699 ft | 387 kts | 251° |
| 2026-04-24 12:05 | -1.86684 | 116.59704 | 15801 ft | 387 kts | 251° |
| 2026-04-24 12:05 | -1.87527 | 116.57141 | 15832 ft | 388 kts | 251° |
| 2026-04-24 12:05 | -1.88373 | 116.54579 | 15834 ft | 388 kts | 251° |
| 2026-04-24 12:05 | -1.89218 | 116.52023 | 15823 ft | 387 kts | 251° |
| 2026-04-24 12:06 | -1.90063 | 116.49466 | 15819 ft | 387 kts | 251° |
| 2026-04-24 12:06 | -1.90908 | 116.46905 | 15824 ft | 388 kts | 251° |
| 2026-04-24 12:06 | -1.91890 | 116.44393 | 15868 ft | 390 kts | 242° |
| 2026-04-24 12:06 | -1.93307 | 116.42121 | 16400 ft | 390 kts | 231° |
| 2026-04-24 12:07 | -1.95103 | 116.40093 | 17069 ft | 391 kts | 224° |
| 2026-04-24 12:07 | -1.97006 | 116.38138 | 17622 ft | 394 kts | 224° |
| 2026-04-24 12:07 | -1.98922 | 116.36161 | 18200 ft | 398 kts | 224° |
| 2026-04-24 12:07 | -2.00854 | 116.34167 | 18717 ft | 401 kts | 224° |
| 2026-04-24 12:08 | -2.02807 | 116.32153 | 19268 ft | 404 kts | 224° |
| 2026-04-24 12:08 | -2.04773 | 116.30128 | 19753 ft | 408 kts | 224° |
| 2026-04-24 12:08 | -2.06759 | 116.28083 | 20274 ft | 411 kts | 224° |
| 2026-04-24 12:08 | -2.08761 | 116.26022 | 20743 ft | 415 kts | 225° |
| 2026-04-24 12:09 | -2.10779 | 116.23945 | 21240 ft | 417 kts | 225° |
| 2026-04-24 12:09 | -2.12810 | 116.21853 | 21687 ft | 421 kts | 225° |
| 2026-04-24 12:09 | -2.14858 | 116.19743 | 22141 ft | 424 kts | 225° |
| 2026-04-24 12:09 | -2.16915 | 116.17624 | 22583 ft | 427 kts | 225° |
| 2026-04-24 12:10 | -2.18991 | 116.15484 | 22995 ft | 430 kts | 225° |
| 2026-04-24 12:10 | -2.21084 | 116.13328 | 23405 ft | 433 kts | 225° |
| 2026-04-24 12:10 | -2.23187 | 116.11161 | 23837 ft | 435 kts | 225° |
| 2026-04-24 12:11 | -2.27435 | 116.06783 | 24604 ft | 441 kts | 225° |
| 2026-04-24 12:11 | -2.29578 | 116.04575 | 24994 ft | 443 kts | 225° |
| 2026-04-24 12:11 | -2.31732 | 116.02356 | 25386 ft | 445 kts | 225° |
| 2026-04-24 12:11 | -2.33898 | 116.00122 | 25719 ft | 449 kts | 225° |
| 2026-04-24 12:12 | -2.36074 | 115.97880 | 26078 ft | 451 kts | 225° |
| 2026-04-24 12:12 | -2.39114 | 115.95029 | 26531 ft | 453 kts | 218° |
| 2026-04-24 12:12 | -2.40788 | 115.93787 | 26750 ft | 453 kts | 213° |
| 2026-04-24 12:12 | -2.43494 | 115.92161 | 27082 ft | 454 kts | 206° |
| 2026-04-24 12:13 | -2.46312 | 115.90707 | 27399 ft | 457 kts | 206° |
| 2026-04-24 12:13 | -2.49139 | 115.89236 | 27694 ft | 459 kts | 206° |
| 2026-04-24 12:13 | -2.51973 | 115.87754 | 28035 ft | 461 kts | 206° |
| 2026-04-24 12:13 | -2.54823 | 115.86264 | 28338 ft | 463 kts | 206° |
| 2026-04-24 12:14 | -2.57684 | 115.84771 | 28640 ft | 465 kts | 206° |
| 2026-04-24 12:14 | -2.60556 | 115.83271 | 28933 ft | 466 kts | 206° |
| 2026-04-24 12:14 | -2.63436 | 115.81767 | 29206 ft | 468 kts | 206° |
| 2026-04-24 12:14 | -2.66330 | 115.80256 | 29457 ft | 471 kts | 206° |
| 2026-04-24 12:15 | -2.69240 | 115.78736 | 29728 ft | 473 kts | 206° |
| 2026-04-24 12:15 | -2.72160 | 115.77211 | 30020 ft | 474 kts | 206° |
| 2026-04-24 12:15 | -2.75094 | 115.75679 | 30277 ft | 476 kts | 206° |
| 2026-04-24 12:15 | -2.78000 | 115.74160 | 30510 ft | 479 kts | 206° |
| 2026-04-24 12:16 | -2.80959 | 115.72614 | 30794 ft | 481 kts | 206° |
| 2026-04-24 12:16 | -2.83934 | 115.71061 | 31082 ft | 482 kts | 206° |
| 2026-04-24 12:16 | -2.86905 | 115.69510 | 31439 ft | 482 kts | 206° |
| 2026-04-24 12:16 | -2.89873 | 115.67959 | 31782 ft | 481 kts | 206° |
| 2026-04-24 12:17 | -2.92847 | 115.66405 | 32111 ft | 481 kts | 206° |
| 2026-04-24 12:17 | -2.95815 | 115.64855 | 32424 ft | 481 kts | 206° |
| 2026-04-24 12:17 | -2.98782 | 115.63305 | 32742 ft | 481 kts | 205° |
| 2026-04-24 12:17 | -3.01745 | 115.61756 | 33074 ft | 480 kts | 205° |
| 2026-04-24 12:18 | -3.04709 | 115.60206 | 33358 ft | 480 kts | 205° |
| 2026-04-24 12:18 | -3.07672 | 115.58657 | 33643 ft | 480 kts | 205° |
| 2026-04-24 12:18 | -3.10636 | 115.57110 | 33889 ft | 481 kts | 205° |
| 2026-04-24 12:18 | -3.13602 | 115.55560 | 34146 ft | 481 kts | 205° |
| 2026-04-24 12:19 | -3.16565 | 115.54011 | 34417 ft | 480 kts | 205° |
| 2026-04-24 12:19 | -3.19527 | 115.52463 | 34713 ft | 479 kts | 205° |
| 2026-04-24 12:19 | -3.22481 | 115.50919 | 35000 ft | 478 kts | 205° |
| 2026-04-24 12:19 | -3.25433 | 115.49376 | 35272 ft | 478 kts | 205° |
| 2026-04-24 12:20 | -3.28380 | 115.47835 | 35535 ft | 477 kts | 205° |
| 2026-04-24 12:20 | -3.31324 | 115.46296 | 35788 ft | 477 kts | 205° |
| 2026-04-24 12:20 | -3.34265 | 115.44758 | 36028 ft | 476 kts | 205° |
| 2026-04-24 12:20 | -3.37202 | 115.43222 | 36297 ft | 475 kts | 205° |
| 2026-04-24 12:21 | -3.40128 | 115.41692 | 36488 ft | 475 kts | 206° |
| 2026-04-24 12:21 | -3.43025 | 115.40178 | 36681 ft | 476 kts | 206° |
| 2026-04-24 12:21 | -3.45950 | 115.38648 | 36995 ft | 472 kts | 206° |
| 2026-04-24 12:21 | -3.48855 | 115.37128 | 37305 ft | 469 kts | 206° |
| 2026-04-24 12:22 | -3.51738 | 115.35620 | 37611 ft | 466 kts | 206° |
| 2026-04-24 12:22 | -3.54606 | 115.34120 | 37727 ft | 464 kts | 206° |
| 2026-04-24 12:22 | -3.57462 | 115.32625 | 37800 ft | 463 kts | 206° |
| 2026-04-24 12:23 | -3.63172 | 115.29639 | 37804 ft | 463 kts | 206° |
| 2026-04-24 12:23 | -3.68890 | 115.26647 | 37804 ft | 463 kts | 206° |
| 2026-04-24 12:24 | -3.74605 | 115.23656 | 37805 ft | 463 kts | 206° |
| 2026-04-24 12:24 | -3.80324 | 115.20663 | 37804 ft | 463 kts | 206° |
| 2026-04-24 12:25 | -3.86039 | 115.17672 | 37804 ft | 463 kts | 206° |
| 2026-04-24 12:25 | -3.91759 | 115.14677 | 37808 ft | 464 kts | 206° |
| 2026-04-24 12:26 | -3.97482 | 115.11680 | 37808 ft | 464 kts | 206° |
| 2026-04-24 12:26 | -4.03204 | 115.08689 | 37803 ft | 464 kts | 206° |
| 2026-04-24 12:27 | -4.08934 | 115.05710 | 37800 ft | 464 kts | 206° |
| 2026-04-24 12:27 | -4.14622 | 115.02753 | 37794 ft | 464 kts | 206° |
| 2026-04-24 12:28 | -4.20347 | 114.99772 | 37795 ft | 464 kts | 206° |
| 2026-04-24 12:28 | -4.26077 | 114.96788 | 37797 ft | 464 kts | 206° |
| 2026-04-24 12:29 | -4.31812 | 114.93803 | 37800 ft | 465 kts | 206° |
| 2026-04-24 12:29 | -4.37553 | 114.90814 | 37811 ft | 465 kts | 206° |
| 2026-04-24 12:30 | -4.43304 | 114.87818 | 37814 ft | 465 kts | 206° |
| 2026-04-24 12:30 | -4.49049 | 114.84823 | 37816 ft | 465 kts | 206° |
| 2026-04-24 12:31 | -4.54791 | 114.81831 | 37825 ft | 465 kts | 206° |
| 2026-04-24 12:31 | -4.60538 | 114.78834 | 37823 ft | 466 kts | 206° |
| 2026-04-24 12:32 | -4.66260 | 114.75851 | 37822 ft | 466 kts | 206° |
| 2026-04-24 12:32 | -4.72008 | 114.72855 | 37818 ft | 465 kts | 206° |
| 2026-04-24 12:33 | -4.77751 | 114.69861 | 37819 ft | 465 kts | 206° |
| 2026-04-24 12:33 | -4.83489 | 114.66868 | 37817 ft | 465 kts | 206° |
| 2026-04-24 12:34 | -4.89221 | 114.63879 | 37811 ft | 464 kts | 206° |
| 2026-04-24 12:34 | -4.94949 | 114.60890 | 37823 ft | 464 kts | 206° |
| 2026-04-24 12:35 | -4.99710 | 114.58415 | 37821 ft | 464 kts | 206° |
| 2026-04-24 12:35 | -5.06428 | 114.54973 | 37822 ft | 464 kts | 205° |
| 2026-04-24 12:36 | -5.12170 | 114.52023 | 37821 ft | 464 kts | 206° |
| 2026-04-24 12:36 | -5.17911 | 114.49072 | 37819 ft | 464 kts | 206° |
| 2026-04-24 12:37 | -5.23653 | 114.46117 | 37822 ft | 464 kts | 206° |
| 2026-04-24 12:37 | -5.29355 | 114.43183 | 37830 ft | 464 kts | 206° |
| 2026-04-24 12:38 | -5.35090 | 114.40232 | 37824 ft | 463 kts | 206° |
| 2026-04-24 12:38 | -5.40819 | 114.37283 | 37827 ft | 463 kts | 206° |
| 2026-04-24 12:39 | -5.52294 | 114.31375 | 37830 ft | 463 kts | 206° |
| 2026-04-24 12:40 | -5.58040 | 114.28416 | 37832 ft | 464 kts | 206° |
| 2026-04-24 12:40 | -5.63787 | 114.25456 | 37847 ft | 464 kts | 206° |
| 2026-04-24 12:41 | -5.69531 | 114.22496 | 37848 ft | 464 kts | 206° |
| 2026-04-24 12:41 | -5.75275 | 114.19534 | 37848 ft | 464 kts | 206° |
| 2026-04-24 12:42 | -5.80982 | 114.16593 | 37848 ft | 464 kts | 206° |
| 2026-04-24 12:42 | -5.86731 | 114.13629 | 37851 ft | 464 kts | 206° |
| 2026-04-24 12:43 | -5.92475 | 114.10667 | 37851 ft | 464 kts | 206° |
| 2026-04-24 12:43 | -5.98219 | 114.07705 | 37848 ft | 464 kts | 206° |
| 2026-04-24 12:44 | -6.03957 | 114.04743 | 37852 ft | 463 kts | 206° |
| 2026-04-24 12:44 | -6.09697 | 114.01781 | 37854 ft | 463 kts | 206° |
| 2026-04-24 12:45 | -6.15391 | 113.98841 | 37859 ft | 463 kts | 206° |
| 2026-04-24 12:45 | -6.21120 | 113.95883 | 37870 ft | 462 kts | 206° |
| 2026-04-24 12:46 | -6.26834 | 113.92931 | 37862 ft | 462 kts | 206° |
| 2026-04-24 12:46 | -6.32550 | 113.89979 | 37867 ft | 462 kts | 206° |
| 2026-04-24 12:47 | -6.38267 | 113.87026 | 37863 ft | 461 kts | 206° |
| 2026-04-24 12:47 | -6.43522 | 113.83350 | 37859 ft | 463 kts | 225° |
| 2026-04-24 12:47 | -6.45589 | 113.80869 | 37799 ft | 462 kts | 236° |
| 2026-04-24 12:48 | -6.47188 | 113.78080 | 37384 ft | 461 kts | 246° |
| 2026-04-24 12:48 | -6.48268 | 113.75037 | 36655 ft | 464 kts | 257° |
| 2026-04-24 12:48 | -6.48981 | 113.71857 | 35752 ft | 469 kts | 258° |
| 2026-04-24 12:48 | -6.49686 | 113.68672 | 34783 ft | 475 kts | 257° |
| 2026-04-24 12:49 | -6.50416 | 113.65407 | 33772 ft | 482 kts | 257° |
| 2026-04-24 12:49 | -6.51160 | 113.62104 | 32845 ft | 486 kts | 257° |
| 2026-04-24 12:49 | -6.51911 | 113.58782 | 31978 ft | 487 kts | 257° |
| 2026-04-24 12:49 | -6.52663 | 113.55461 | 31184 ft | 486 kts | 257° |
| 2026-04-24 12:50 | -6.53413 | 113.52147 | 30348 ft | 486 kts | 257° |
| 2026-04-24 12:50 | -6.54162 | 113.48840 | 29462 ft | 484 kts | 257° |
| 2026-04-24 12:50 | -6.54907 | 113.45547 | 28133 ft | 483 kts | 257° |
| 2026-04-24 12:50 | -6.55402 | 113.43359 | 27141 ft | 486 kts | 257° |
| 2026-04-24 12:51 | -6.56155 | 113.40028 | 25520 ft | 490 kts | 257° |
| 2026-04-24 12:51 | -6.56914 | 113.36675 | 24212 ft | 488 kts | 257° |
| 2026-04-24 12:51 | -6.57644 | 113.33445 | 24040 ft | 460 kts | 257° |
| 2026-04-24 12:51 | -6.58343 | 113.30349 | 23225 ft | 450 kts | 258° |
| 2026-04-24 12:52 | -6.59020 | 113.27351 | 22995 ft | 429 kts | 257° |
| 2026-04-24 12:52 | -6.59675 | 113.24445 | 22678 ft | 427 kts | 257° |
| 2026-04-24 12:52 | -6.60546 | 113.20582 | 22165 ft | 424 kts | 257° |
| 2026-04-24 12:52 | -6.60986 | 113.18630 | 22111 ft | 425 kts | 257° |
| 2026-04-24 12:53 | -6.61641 | 113.15723 | 22012 ft | 425 kts | 257° |
| 2026-04-24 12:53 | -6.62295 | 113.12829 | 21859 ft | 423 kts | 257° |
| 2026-04-24 12:53 | -6.62949 | 113.09944 | 21481 ft | 422 kts | 257° |
| 2026-04-24 12:53 | -6.63588 | 113.07107 | 20989 ft | 420 kts | 257° |
| 2026-04-24 12:54 | -6.64234 | 113.04246 | 20342 ft | 418 kts | 257° |
| 2026-04-24 12:54 | -6.64876 | 113.01408 | 19805 ft | 413 kts | 257° |
| 2026-04-24 12:54 | -6.65507 | 112.98609 | 19311 ft | 407 kts | 257° |
| 2026-04-24 12:54 | -6.66129 | 112.95848 | 18796 ft | 402 kts | 257° |
| 2026-04-24 12:55 | -6.66744 | 112.93122 | 18285 ft | 398 kts | 257° |
| 2026-04-24 12:55 | -6.67356 | 112.90406 | 17764 ft | 398 kts | 257° |
| 2026-04-24 12:55 | -6.67964 | 112.87706 | 17232 ft | 394 kts | 257° |
| 2026-04-24 12:55 | -6.68566 | 112.85035 | 16742 ft | 389 kts | 257° |
| 2026-04-24 12:56 | -6.69163 | 112.82386 | 16239 ft | 388 kts | 257° |
| 2026-04-24 12:56 | -6.69758 | 112.79748 | 15742 ft | 385 kts | 257° |
| 2026-04-24 12:56 | -6.70346 | 112.77135 | 15243 ft | 381 kts | 257° |
| 2026-04-24 12:56 | -6.70927 | 112.74543 | 14719 ft | 379 kts | 257° |
| 2026-04-24 12:57 | -6.71506 | 112.71963 | 14201 ft | 377 kts | 257° |
| 2026-04-24 12:57 | -6.72081 | 112.69402 | 13669 ft | 374 kts | 257° |
| 2026-04-24 12:57 | -6.72651 | 112.66862 | 13145 ft | 371 kts | 257° |
| 2026-04-24 12:57 | -6.73216 | 112.64343 | 12621 ft | 368 kts | 257° |
| 2026-04-24 12:58 | -6.73777 | 112.61843 | 12093 ft | 365 kts | 257° |
| 2026-04-24 12:58 | -6.74335 | 112.59359 | 11569 ft | 362 kts | 257° |
| 2026-04-24 12:58 | -6.74878 | 112.56930 | 11054 ft | 359 kts | 257° |
| 2026-04-24 12:58 | -6.75419 | 112.54516 | 10512 ft | 348 kts | 257° |
| 2026-04-24 12:59 | -6.75945 | 112.52171 | 9957 ft | 339 kts | 257° |
| 2026-04-24 12:59 | -6.76768 | 112.49983 | 9320 ft | 333 kts | 237° |
| 2026-04-24 12:59 | -6.78312 | 112.48303 | 8718 ft | 325 kts | 213° |
| 2026-04-24 12:59 | -6.80329 | 112.47388 | 8119 ft | 315 kts | 189° |
| 2026-04-24 13:00 | -6.82443 | 112.47365 | 7874 ft | 293 kts | 169° |
| 2026-04-24 13:00 | -6.84373 | 112.47757 | 7759 ft | 273 kts | 165° |
| 2026-04-24 13:00 | -6.86188 | 112.48173 | 7663 ft | 267 kts | 166° |
| 2026-04-24 13:00 | -6.88019 | 112.48530 | 7559 ft | 268 kts | 168° |
| 2026-04-24 13:01 | -6.89855 | 112.48818 | 7503 ft | 266 kts | 170° |
| 2026-04-24 13:01 | -6.91691 | 112.49063 | 7490 ft | 266 kts | 171° |
| 2026-04-24 13:01 | -6.93534 | 112.49286 | 7490 ft | 267 kts | 172° |
| 2026-04-24 13:01 | -6.95381 | 112.49500 | 7500 ft | 267 kts | 172° |
| 2026-04-24 13:02 | -6.97224 | 112.49714 | 7500 ft | 267 kts | 172° |
| 2026-04-24 13:02 | -6.99046 | 112.49926 | 7489 ft | 267 kts | 172° |
| 2026-04-24 13:02 | -7.00896 | 112.50135 | 7390 ft | 268 kts | 172° |
| 2026-04-24 13:02 | -7.02755 | 112.50343 | 7015 ft | 270 kts | 172° |
| 2026-04-24 13:03 | -7.04629 | 112.50550 | 6614 ft | 270 kts | 172° |
| 2026-04-24 13:03 | -7.06492 | 112.50757 | 6245 ft | 269 kts | 172° |
| 2026-04-24 13:03 | -7.08345 | 112.50967 | 5909 ft | 267 kts | 172° |
| 2026-04-24 13:03 | -7.10178 | 112.51175 | 5582 ft | 264 kts | 172° |
| 2026-04-24 13:04 | -7.12001 | 112.51380 | 5258 ft | 262 kts | 172° |
| 2026-04-24 13:04 | -7.13805 | 112.51586 | 4932 ft | 259 kts | 172° |
| 2026-04-24 13:04 | -7.15596 | 112.51790 | 4610 ft | 258 kts | 172° |
| 2026-04-24 13:04 | -7.17375 | 112.51994 | 4246 ft | 258 kts | 172° |
| 2026-04-24 13:05 | -7.19177 | 112.52201 | 3800 ft | 262 kts | 172° |
| 2026-04-24 13:05 | -7.20946 | 112.52403 | 3686 ft | 251 kts | 172° |
| 2026-04-24 13:05 | -7.22643 | 112.52593 | 3579 ft | 240 kts | 172° |
| 2026-04-24 13:05 | -7.24257 | 112.52772 | 3498 ft | 226 kts | 172° |
| 2026-04-24 13:06 | -7.25746 | 112.52940 | 3496 ft | 210 kts | 172° |
| 2026-04-24 13:06 | -7.27155 | 112.53097 | 3501 ft | 202 kts | 172° |
| 2026-04-24 13:06 | -7.28570 | 112.53255 | 3492 ft | 205 kts | 172° |
| 2026-04-24 13:06 | -7.29982 | 112.53419 | 3497 ft | 204 kts | 172° |
| 2026-04-24 13:07 | -7.31391 | 112.53580 | 3498 ft | 204 kts | 172° |
| 2026-04-24 13:07 | -7.32769 | 112.53858 | 3486 ft | 198 kts | 149° |
| 2026-04-24 13:07 | -7.33709 | 112.54720 | 3513 ft | 171 kts | 123° |
| 2026-04-24 13:07 | -7.34171 | 112.55720 | 3482 ft | 144 kts | 107° |
| 2026-04-24 13:08 | -7.34409 | 112.56662 | 3505 ft | 141 kts | 101° |
| 2026-04-24 13:08 | -7.34580 | 112.57626 | 3492 ft | 138 kts | 98° |
| 2026-04-24 13:08 | -7.34734 | 112.58580 | 3493 ft | 138 kts | 98° |
| 2026-04-24 13:09 | -7.35047 | 112.60498 | 3277 ft | 137 kts | 97° |
| 2026-04-24 13:09 | -7.35195 | 112.61428 | 3109 ft | 137 kts | 98° |
| 2026-04-24 13:09 | -7.35351 | 112.62377 | 2937 ft | 136 kts | 99° |
| 2026-04-24 13:09 | -7.35496 | 112.63326 | 2757 ft | 136 kts | 98° |
| 2026-04-24 13:10 | -7.35653 | 112.64257 | 2576 ft | 134 kts | 100° |
| 2026-04-24 13:10 | -7.35805 | 112.65184 | 2404 ft | 134 kts | 98° |
| 2026-04-24 13:10 | -7.35949 | 112.66110 | 2220 ft | 133 kts | 98° |
| 2026-04-24 13:10 | -7.36099 | 112.67029 | 2050 ft | 133 kts | 99° |
| 2026-04-24 13:11 | -7.36249 | 112.67944 | 1874 ft | 133 kts | 99° |
| 2026-04-24 13:11 | -7.36394 | 112.68858 | 1696 ft | 131 kts | 99° |
| 2026-04-24 13:11 | -7.36541 | 112.69766 | 1520 ft | 130 kts | 98° |
| 2026-04-24 13:11 | -7.36687 | 112.70665 | 1351 ft | 129 kts | 99° |
| 2026-04-24 13:12 | -7.36832 | 112.71563 | 1176 ft | 130 kts | 99° |
| 2026-04-24 13:12 | -7.36976 | 112.72458 | 1005 ft | 129 kts | 99° |
| 2026-04-24 13:12 | -7.37119 | 112.73345 | 832 ft | 128 kts | 99° |
| 2026-04-24 13:12 | -7.37264 | 112.74240 | 696 ft | 129 kts | 99° |
| 2026-04-24 13:13 | -7.37403 | 112.75136 | 546 ft | 129 kts | 99° |
| 2026-04-24 13:13 | -7.37545 | 112.76023 | 330 ft | 130 kts | 99° |
| 2026-04-24 13:13 | -7.37692 | 112.76919 | 147 ft | 130 kts | 99° |
| 2026-04-24 13:13 | -7.37843 | 112.77815 | 15 ft | 126 kts | 99° |
| 2026-04-24 13:14 | -7.37967 | 112.78590 | 9 ft | 92 kts | 99° |
| 2026-04-24 13:14 | -7.38045 | 112.79073 | 11 ft | 41 kts | 98° |
| 2026-04-24 13:14 | -7.38012 | 112.79320 | 9 ft | 22 kts | 69° |
| 2026-04-24 13:14 | -7.38006 | 112.79334 | 9 ft | 0 kts | 69° |
| 2026-04-24 13:15 | -7.38006 | 112.79336 | 11 ft | 1 kts | 69° |
| 2026-04-24 13:15 | -7.37996 | 112.79360 | 9 ft | 6 kts | 69° |
| 2026-04-24 13:16 | -7.37990 | 112.79377 | 9 ft | 0 kts | 69° |
| 2026-04-24 13:16 | -7.37987 | 112.79385 | 9 ft | 3 kts | 67° |
| 2026-04-24 13:16 | -7.37962 | 112.79406 | 9 ft | 6 kts | 28° |
| 2026-04-24 13:17 | -7.37910 | 112.79415 | 9 ft | 9 kts | 9° |
| 2026-04-24 13:17 | -7.37834 | 112.79427 | 9 ft | 13 kts | 9° |
| 2026-04-24 13:17 | -7.37736 | 112.79444 | 9 ft | 14 kts | 9° |
| 2026-04-24 13:17 | -7.37700 | 112.79450 | 9 ft | 2 kts | 9° |
| 2026-04-24 13:18 | -7.37684 | 112.79485 | 9 ft | 11 kts | 92° |
| 2026-04-24 13:18 | -7.37700 | 112.79587 | 9 ft | 19 kts | 99° |
| 2026-04-24 13:18 | -7.37720 | 112.79714 | 9 ft | 12 kts | 99° |
| 2026-04-24 13:18 | -7.37732 | 112.79788 | 9 ft | 14 kts | 99° |
| 2026-04-24 13:19 | -7.37736 | 112.79848 | 9 ft | 2 kts | 46° |
| 2026-04-24 13:19 | -7.37730 | 112.79839 | 9 ft | 3 kts | 289° |
| 2026-04-24 13:19 | -7.37728 | 112.79761 | 9 ft | 18 kts | 275° |
| 2026-04-24 13:19 | -7.37707 | 112.79644 | 9 ft | 7 kts | 300° |
| 2026-04-24 13:20 | -7.37650 | 112.79641 | 9 ft | 9 kts | 11° |
| 2026-04-24 13:20 | -7.37618 | 112.79646 | 9 ft | 0 kts | 8° |
| 2026-04-24 13:20 | -7.37620 | 112.79646 | 9 ft | 0 kts | 8° |